Time;durP1;ratioP1;P1;durP2;ratioP2;P2;SDS_P1;SDS_P2;PMS_P1;PMS_P2;Temp;Humidity;BMP_temperature;BMP_pressure;BME280_temperature;BME280_humidity;BME280_pressure;Samples;Min_cycle;Max_cycle;Signal;HPM_P1;HPM_P2
2022/05/22 00:01:39;;;;;;;12.43;5.40;;;9.40;99.90;;;;;;5054919;28;20120;-80
2022/05/22 00:04:04;;;;;;;12.60;4.85;;;9.40;99.90;;;;;;5054910;28;20116;-80
2022/05/22 00:06:30;;;;;;;14.65;5.18;;;9.40;99.90;;;;;;5054809;28;20206;-80
2022/05/22 00:08:56;;;;;;;16.75;5.35;;;9.50;99.90;;;;;;5037220;28;20051;-80
2022/05/22 00:11:22;;;;;;;11.55;4.88;;;9.50;99.90;;;;;;5036957;28;20052;-80
2022/05/22 00:13:49;;;;;;;10.48;4.32;;;9.50;99.90;;;;;;5054748;28;20128;-80
2022/05/22 00:18:59;;;;;;;13.98;5.38;;;9.40;99.90;;;;;;5036955;28;20060;-80
2022/05/22 00:21:24;;;;;;;13.07;5.30;;;9.40;99.90;;;;;;5054432;28;20072;-80
2022/05/22 00:23:50;;;;;;;15.68;5.43;;;9.30;99.90;;;;;;5036500;28;20045;-80
2022/05/22 00:26:16;;;;;;;11.50;4.88;;;9.30;99.90;;;;;;5036449;28;20075;-80
2022/05/22 00:28:42;;;;;;;17.85;5.68;;;9.30;99.90;;;;;;5054437;28;20128;-80
2022/05/22 00:31:08;;;;;;;15.30;5.15;;;9.30;99.90;;;;;;5054462;28;20061;-80
2022/05/22 00:33:34;;;;;;;15.57;5.30;;;9.20;99.90;;;;;;5054326;28;20044;-80
2022/05/22 00:35:59;;;;;;;11.05;4.75;;;9.20;99.90;;;;;;5054240;28;20041;-80
2022/05/22 00:38:25;;;;;;;15.63;5.57;;;9.20;99.90;;;;;;5054291;28;20044;-80
2022/05/22 00:40:50;;;;;;;16.30;5.70;;;9.20;99.90;;;;;;5054336;28;20037;-80
2022/05/22 00:43:28;;;;;;;20.70;5.82;;;9.20;99.90;;;;;;5054056;28;20114;-80
2022/05/22 00:45:54;;;;;;;12.38;5.97;;;9.20;99.90;;;;;;5036356;28;20049;-80
2022/05/22 00:48:20;;;;;;;18.83;5.70;;;9.10;99.90;;;;;;5054062;28;20539;-80
2022/05/22 00:50:46;;;;;;;14.43;5.57;;;9.10;99.90;;;;;;5036212;28;20040;-80
2022/05/22 00:53:12;;;;;;;22.65;7.32;;;9.10;99.90;;;;;;5036006;28;20053;-80
2022/05/22 00:55:38;;;;;;;17.15;7.85;;;9.10;99.90;;;;;;5054065;28;20040;-80
2022/05/22 00:58:16;;;;;;;14.95;6.72;;;9.20;99.90;;;;;;5053866;28;20045;-80
2022/05/22 01:00:42;;;;;;;15.98;6.68;;;9.30;99.90;;;;;;5054017;28;20087;-80
2022/05/22 01:03:29;;;;;;;15.80;7.22;;;9.30;99.90;;;;;;5035876;28;20045;-80
2022/05/22 01:06:16;;;;;;;12.93;6.47;;;9.20;99.90;;;;;;5053320;28;20128;-80
2022/05/22 01:08:43;;;;;;;13.90;5.78;;;9.20;99.90;;;;;;5053113;28;20525;-80
2022/05/22 01:11:12;;;;;;;13.20;6.15;;;9.20;99.90;;;;;;5053576;28;20045;-80
2022/05/22 01:13:42;;;;;;;18.55;6.07;;;9.20;99.90;;;;;;5036009;28;20362;-80
2022/05/22 01:16:08;;;;;;;16.77;5.80;;;9.20;99.90;;;;;;5053600;28;20091;-80
2022/05/22 01:18:41;;;;;;;14.52;6.18;;;9.10;99.90;;;;;;5053455;28;20084;-80
2022/05/22 01:21:14;;;;;;;13.40;6.10;;;9.20;99.90;;;;;;5053647;28;20052;-80
2022/05/22 01:23:40;;;;;;;17.17;7.07;;;9.20;99.90;;;;;;5035639;28;20508;-80
2022/05/22 01:26:06;;;;;;;14.43;6.53;;;9.10;99.90;;;;;;5053478;28;20041;-80
2022/05/22 01:28:31;;;;;;;13.52;5.95;;;9.20;99.90;;;;;;5053387;28;20045;-80
2022/05/22 01:30:57;;;;;;;14.52;6.35;;;9.20;99.90;;;;;;5053516;28;20041;-80
2022/05/22 01:33:23;;;;;;;15.52;6.40;;;9.10;99.90;;;;;;5035537;28;20044;-80
2022/05/22 01:35:48;;;;;;;15.45;7.18;;;9.10;99.90;;;;;;5035591;28;20056;-80
2022/05/22 01:38:14;;;;;;;12.50;6.85;;;9.00;99.90;;;;;;5035371;28;20124;-80
2022/05/22 01:40:40;;;;;;;13.52;6.85;;;9.00;99.90;;;;;;5053396;28;20047;-80
2022/05/22 01:43:05;;;;;;;15.38;7.47;;;9.00;99.90;;;;;;5053323;28;20048;-80
2022/05/22 01:45:31;;;;;;;13.27;6.78;;;9.00;99.90;;;;;;5035562;28;20094;-80
2022/05/22 01:47:57;;;;;;;13.88;6.00;;;9.00;99.90;;;;;;5053403;28;20187;-80
2022/05/22 01:50:23;;;;;;;15.13;5.90;;;9.00;99.90;;;;;;5035746;28;20506;-80
2022/05/22 01:52:49;;;;;;;13.55;6.20;;;9.00;99.90;;;;;;5035571;28;20536;-80
2022/05/22 01:55:15;;;;;;;19.05;7.40;;;9.00;99.90;;;;;;5053006;28;20048;-80
2022/05/22 01:57:40;;;;;;;14.98;6.70;;;9.00;99.90;;;;;;5053345;28;20051;-80
2022/05/22 02:00:09;;;;;;;14.18;6.93;;;9.00;99.90;;;;;;5035309;28;20116;-80
2022/05/22 02:02:35;;;;;;;20.58;7.93;;;9.00;99.90;;;;;;5035611;28;20060;-80
2022/05/22 02:05:02;;;;;;;15.40;8.30;;;9.00;99.90;;;;;;5035659;28;20052;-80
2022/05/22 02:10:13;;;;;;;20.92;7.55;;;9.00;99.90;;;;;;5053187;28;20060;-80
2022/05/22 02:12:38;;;;;;;18.35;7.47;;;9.00;99.90;;;;;;5053448;28;20489;-80
2022/05/22 02:15:05;;;;;;;18.48;7.65;;;9.00;99.90;;;;;;5053310;28;20045;-80
2022/05/22 02:17:32;;;;;;;18.05;8.45;;;8.90;99.90;;;;;;5056817;28;20060;-80
2022/05/22 02:19:57;;;;;;;16.92;7.75;;;9.00;99.90;;;;;;5056945;28;20091;-80
2022/05/22 02:22:24;;;;;;;18.67;8.60;;;8.90;99.90;;;;;;5038850;28;20057;-80
2022/05/22 02:24:51;;;;;;;18.92;7.85;;;8.90;99.90;;;;;;5038771;28;20473;-80
2022/05/22 02:27:17;;;;;;;16.65;8.63;;;8.90;99.90;;;;;;5056601;28;20049;-80
2022/05/22 02:29:42;;;;;;;16.92;7.97;;;8.90;99.90;;;;;;5056646;28;20049;-80
2022/05/22 02:32:09;;;;;;;14.85;7.75;;;8.90;99.90;;;;;;5056728;28;20099;-80
2022/05/22 02:34:34;;;;;;;15.10;7.65;;;8.90;99.90;;;;;;5038806;28;20440;-80
2022/05/22 02:37:00;;;;;;;14.15;7.25;;;8.90;99.90;;;;;;5038775;28;20049;-80
2022/05/22 02:39:26;;;;;;;18.10;7.05;;;8.90;99.90;;;;;;5056533;28;20071;-80
2022/05/22 02:41:52;;;;;;;16.02;7.07;;;8.90;99.90;;;;;;5038427;28;20048;-80
2022/05/22 02:44:18;;;;;;;14.48;7.05;;;8.90;99.90;;;;;;5056367;28;20048;-80
2022/05/22 02:46:43;;;;;;;16.60;7.70;;;8.90;99.90;;;;;;5038506;28;20069;-80
2022/05/22 02:49:10;;;;;;;15.55;7.78;;;8.90;99.90;;;;;;5038529;28;20079;-80
2022/05/22 02:51:36;;;;;;;13.85;6.97;;;8.80;99.90;;;;;;5056763;28;20049;-80
2022/05/22 02:54:03;;;;;;;14.88;7.13;;;8.80;99.90;;;;;;5038263;28;20057;-80
2022/05/22 02:56:28;;;;;;;13.48;7.30;;;8.80;99.90;;;;;;5056152;28;20037;-80
2022/05/22 02:58:54;;;;;;;18.75;7.68;;;8.80;99.90;;;;;;5038304;28;20405;-80
2022/05/22 03:01:20;;;;;;;14.52;6.97;;;8.80;99.90;;;;;;5038091;28;20097;-80
2022/05/22 03:03:46;;;;;;;15.63;6.75;;;8.70;99.90;;;;;;5038162;28;20131;-80
2022/05/22 03:08:57;;;;;;;12.43;6.95;;;8.60;99.90;;;;;;5056040;28;20086;-80
2022/05/22 03:11:22;;;;;;;13.52;7.30;;;8.60;99.90;;;;;;5055983;28;20041;-80
2022/05/22 03:13:48;;;;;;;18.98;7.03;;;8.70;99.90;;;;;;5055889;28;20473;-80
2022/05/22 03:16:15;;;;;;;16.52;7.85;;;8.70;99.90;;;;;;5037751;28;20140;-80
2022/05/22 03:18:41;;;;;;;15.27;7.32;;;8.70;99.90;;;;;;5037675;28;20103;-80
2022/05/22 03:21:06;;;;;;;15.50;7.85;;;8.70;99.90;;;;;;5055361;28;20495;-80
2022/05/22 03:23:32;;;;;;;16.67;7.45;;;8.70;99.90;;;;;;5037161;28;20148;-80
2022/05/22 03:25:57;;;;;;;14.57;7.05;;;8.70;99.90;;;;;;5037447;28;20044;-81
2022/05/22 03:28:23;;;;;;;18.02;7.15;;;8.70;99.90;;;;;;5053579;28;20369;-80
2022/05/22 03:30:50;;;;;;;11.60;6.57;;;8.70;99.90;;;;;;5055579;28;20091;-80
2022/05/22 03:33:16;;;;;;;12.38;7.25;;;8.60;99.90;;;;;;5055079;28;20408;-80
2022/05/22 03:35:42;;;;;;;12.65;6.68;;;8.50;99.90;;;;;;5037636;28;20111;-80
2022/05/22 03:38:07;;;;;;;13.85;6.28;;;8.60;99.90;;;;;;5055495;28;20451;-80
2022/05/22 03:40:42;;;;;;;18.60;7.20;;;8.50;99.90;;;;;;5055106;28;20072;-80
2022/05/22 03:43:07;;;;;;;11.15;6.22;;;8.50;99.90;;;;;;5055328;28;20048;-80
2022/05/22 03:45:33;;;;;;;14.63;6.45;;;8.50;99.90;;;;;;5055041;28;20041;-80
2022/05/22 03:47:58;;;;;;;14.57;7.55;;;8.50;99.90;;;;;;5055014;28;20464;-80
2022/05/22 03:50:25;;;;;;;15.80;7.05;;;8.50;99.90;;;;;;5055173;28;20068;-80
2022/05/22 03:52:51;;;;;;;15.20;6.55;;;8.60;99.90;;;;;;5055132;28;20045;-80
2022/05/22 03:55:17;;;;;;;11.55;5.72;;;8.60;99.90;;;;;;5055070;28;20439;-80
2022/05/22 03:57:47;;;;;;;12.57;6.60;;;8.50;99.90;;;;;;5054873;28;20056;-80
2022/05/22 04:00:16;;;;;;;14.70;6.78;;;8.50;99.90;;;;;;5037031;28;20427;-80
2022/05/22 04:02:42;;;;;;;13.00;6.72;;;8.50;99.90;;;;;;5036832;28;20499;-80
2022/05/22 04:05:08;;;;;;;14.63;6.75;;;8.60;99.90;;;;;;5054591;28;20516;-80
2022/05/22 04:07:41;;;;;;;12.55;6.93;;;8.60;99.90;;;;;;5054745;28;20053;-78
2022/05/22 04:10:08;;;;;;;14.85;6.90;;;8.70;99.90;;;;;;5036963;28;20049;-79
2022/05/22 04:12:35;;;;;;;15.18;7.28;;;8.70;99.90;;;;;;5054662;28;20053;-79
2022/05/22 04:15:02;;;;;;;16.08;7.45;;;8.80;99.90;;;;;;5036608;28;20087;-79
2022/05/22 04:17:28;;;;;;;13.13;7.45;;;9.00;99.90;;;;;;5036347;28;20048;-80
2022/05/22 04:19:53;;;;;;;15.68;6.93;;;9.10;99.90;;;;;;5036767;28;20094;-80
2022/05/22 04:22:19;;;;;;;14.75;7.82;;;9.20;99.90;;;;;;5054432;28;20047;-80
2022/05/22 04:27:29;;;;;;;12.82;7.65;;;9.40;99.90;;;;;;5054133;28;20507;-80
2022/05/22 04:29:54;;;;;;;18.65;7.70;;;9.60;99.90;;;;;;5036671;28;20049;-80
2022/05/22 04:32:20;;;;;;;13.77;7.13;;;9.70;99.90;;;;;;5054273;28;20051;-80
2022/05/22 04:34:46;;;;;;;14.23;7.32;;;9.70;99.90;;;;;;5053785;28;20044;-80
2022/05/22 04:37:12;;;;;;;13.90;7.63;;;9.80;99.90;;;;;;5054277;28;20045;-81
2022/05/22 04:39:37;;;;;;;14.23;8.38;;;9.90;99.90;;;;;;5054051;28;20029;-81
2022/05/22 04:42:03;;;;;;;15.25;8.38;;;10.00;99.90;;;;;;5036012;28;20382;-81
2022/05/22 04:44:29;;;;;;;14.95;8.60;;;10.10;99.90;;;;;;5036346;28;20045;-81
2022/05/22 04:46:54;;;;;;;19.42;9.20;;;10.20;99.90;;;;;;5053711;28;20037;-81
2022/05/22 04:49:20;;;;;;;19.05;8.75;;;10.30;99.90;;;;;;5036070;28;20044;-81
2022/05/22 04:51:46;;;;;;;20.08;9.00;;;10.50;99.90;;;;;;5036336;28;20128;-81
2022/05/22 04:54:12;;;;;;;19.20;8.48;;;10.50;99.90;;;;;;5053842;28;20073;-81
2022/05/22 04:56:38;;;;;;;21.42;9.18;;;10.60;99.90;;;;;;5036061;28;20141;-81
2022/05/22 04:59:03;;;;;;;16.27;8.98;;;10.70;99.90;;;;;;5035815;28;20143;-81
2022/05/22 05:01:29;;;;;;;18.13;9.05;;;10.70;99.90;;;;;;5053603;28;20045;-81
2022/05/22 05:03:55;;;;;;;16.73;9.50;;;10.80;99.90;;;;;;5036162;28;20051;-81
2022/05/22 05:06:20;;;;;;;16.33;8.98;;;10.90;99.90;;;;;;5035990;28;20116;-81
2022/05/22 05:08:46;;;;;;;17.80;9.35;;;11.00;99.90;;;;;;5053726;28;20370;-81
2022/05/22 05:11:12;;;;;;;21.42;9.52;;;11.20;99.90;;;;;;5035844;28;20074;-82
2022/05/22 05:13:38;;;;;;;19.55;10.02;;;11.30;99.90;;;;;;5035633;28;20049;-80
2022/05/22 05:16:13;;;;;;;18.05;10.43;;;11.30;99.90;;;;;;5053423;28;20110;-81
2022/05/22 05:18:39;;;;;;;19.58;9.07;;;11.40;99.90;;;;;;5053426;28;20132;-81
2022/05/22 05:21:07;;;;;;;23.45;11.05;;;11.50;99.90;;;;;;5053580;28;20041;-80
2022/05/22 05:23:33;;;;;;;24.58;11.48;;;11.70;99.90;;;;;;5053177;28;20374;-80
2022/05/22 05:25:59;;;;;;;27.90;11.63;;;11.80;99.90;;;;;;5053562;28;20495;-80
2022/05/22 05:28:25;;;;;;;28.30;11.05;;;12.00;99.90;;;;;;5053597;28;20068;-80
2022/05/22 05:30:51;;;;;;;28.88;11.07;;;12.20;99.90;;;;;;5053502;28;20037;-80
2022/05/22 05:33:17;;;;;;;24.83;11.05;;;12.20;99.90;;;;;;5035543;28;20056;-81
2022/05/22 05:35:43;;;;;;;26.10;11.20;;;12.20;99.90;;;;;;5035648;28;20147;-81
2022/05/22 05:38:09;;;;;;;27.95;11.63;;;12.30;99.90;;;;;;5053069;28;20397;-80
2022/05/22 05:40:35;;;;;;;34.05;12.10;;;12.50;99.90;;;;;;5053384;28;20070;-80
2022/05/22 05:43:02;;;;;;;26.65;10.82;;;12.60;99.90;;;;;;5035246;28;20053;-82
2022/05/22 05:45:27;;;;;;;33.03;11.93;;;12.70;99.90;;;;;;5053080;28;20426;-82
2022/05/22 05:47:53;;;;;;;31.30;11.52;;;12.80;99.90;;;;;;5052941;28;20171;-81
2022/05/22 05:50:22;;;;;;;27.40;11.27;;;12.90;99.90;;;;;;5053544;28;20503;-81
2022/05/22 05:52:55;;;;;;;27.17;12.10;;;13.10;99.90;;;;;;5039471;28;20526;-81
2022/05/22 05:55:22;;;;;;;27.10;11.13;;;13.30;99.90;;;;;;5039225;28;20048;-81
2022/05/22 05:57:48;;;;;;;30.40;11.45;;;13.30;99.90;;;;;;5039024;28;20045;-82
2022/05/22 06:00:17;;;;;;;22.75;11.02;;;13.50;99.90;;;;;;5057183;28;20064;-81
2022/05/22 06:02:43;;;;;;;27.05;11.02;;;13.60;99.90;;;;;;5057106;28;20087;-81
2022/05/22 06:05:12;;;;;;;26.30;11.90;;;13.80;99.90;;;;;;5039257;28;20052;-78
2022/05/22 06:07:38;;;;;;;29.60;11.43;;;14.10;99.90;;;;;;5039294;28;20057;-78
2022/05/22 06:10:06;;;;;;;27.67;11.10;;;14.20;99.90;;;;;;5057038;28;20063;-78
2022/05/22 06:12:32;;;;;;;33.00;12.68;;;14.20;99.90;;;;;;5057046;28;20087;-78
2022/05/22 06:14:58;;;;;;;28.77;11.70;;;14.40;99.90;;;;;;5056620;28;20080;-79
2022/05/22 06:17:35;;;;;;;31.58;10.45;;;14.60;99.90;;;;;;5038747;28;20508;-78
2022/05/22 06:20:03;;;;;;;30.27;11.52;;;14.70;99.90;;;;;;5056626;28;20053;-78
2022/05/22 06:22:30;;;;;;;29.83;11.15;;;14.80;99.90;;;;;;5056443;28;20392;-78
2022/05/22 06:24:57;;;;;;;27.17;11.27;;;15.00;99.90;;;;;;5038806;28;20128;-78
2022/05/22 06:27:23;;;;;;;31.77;11.90;;;15.00;99.90;;;;;;5038631;28;20049;-78
2022/05/22 06:29:49;;;;;;;23.45;10.48;;;15.10;99.90;;;;;;5038748;28;20052;-78
2022/05/22 06:32:17;;;;;;;28.10;9.77;;;15.30;99.90;;;;;;5056392;28;20136;-79
2022/05/22 06:34:44;;;;;;;30.15;9.98;;;15.40;99.90;;;;;;5056375;28;20044;-78
2022/05/22 06:37:13;;;;;;;31.80;9.38;;;15.50;99.90;;;;;;5038473;28;20496;-78
2022/05/22 06:39:51;;;;;;;24.55;8.88;;;15.60;99.90;;;;;;5056551;28;20045;-78
2022/05/22 06:42:17;;;;;;;22.77;8.50;;;15.60;99.90;;;;;;5056246;28;20496;-78
2022/05/22 06:44:43;;;;;;;23.65;9.18;;;15.80;99.90;;;;;;5056207;28;20048;-77
2022/05/22 06:47:08;;;;;;;29.20;9.93;;;15.90;99.90;;;;;;5056326;28;20472;-78
2022/05/22 06:49:35;;;;;;;24.13;8.77;;;16.10;99.90;;;;;;5038220;28;20072;-80
2022/05/22 06:52:01;;;;;;;36.20;9.43;;;16.00;99.90;;;;;;5038213;28;20048;-78
2022/05/22 06:54:30;;;;;;;39.00;10.88;;;16.00;99.90;;;;;;5038457;28;20045;-78
2022/05/22 06:56:57;;;;;;;32.03;9.90;;;16.10;99.90;;;;;;5056121;28;20094;-78
2022/05/22 06:59:23;;;;;;;26.73;10.63;;;16.20;99.90;;;;;;5055717;28;20485;-78
2022/05/22 07:01:49;;;;;;;32.63;10.93;;;16.30;99.90;;;;;;5055887;28;20045;-79
2022/05/22 07:04:14;;;;;;;30.05;10.63;;;16.50;99.90;;;;;;5056170;28;20053;-78
2022/05/22 07:06:40;;;;;;;35.80;11.65;;;16.60;99.90;;;;;;5054688;28;20073;-78
2022/05/22 07:09:05;;;;;;;27.33;11.88;;;16.70;99.90;;;;;;5055559;28;20456;-78
2022/05/22 07:11:40;;;;;;;38.80;12.60;;;16.80;99.90;;;;;;5037975;28;20048;-77
2022/05/22 07:14:10;;;;;;;31.67;11.52;;;17.10;99.90;;;;;;5037528;28;20055;-78
2022/05/22 07:16:38;;;;;;;36.28;10.98;;;17.20;99.90;;;;;;5055222;28;20056;-78
2022/05/22 07:19:05;;;;;;;33.42;10.63;;;17.20;99.90;;;;;;5055428;28;20057;-78
2022/05/22 07:21:31;;;;;;;32.40;11.85;;;17.40;99.90;;;;;;5037448;28;20127;-78
2022/05/22 07:23:59;;;;;;;35.03;11.30;;;17.30;99.90;;;;;;5037403;28;20048;-77
2022/05/22 07:26:26;;;;;;;39.53;10.63;;;17.40;99.90;;;;;;5055172;28;20124;-77
2022/05/22 07:28:52;;;;;;;29.70;10.32;;;17.40;99.90;;;;;;5055527;28;20148;-79
2022/05/22 07:31:21;;;;;;;25.00;8.68;;;17.50;99.90;;;;;;5055397;28;20037;-84
2022/05/22 07:33:47;;;;;;;31.58;9.55;;;17.40;99.90;;;;;;5055077;28;20407;-76
2022/05/22 07:36:13;;;;;;;26.88;8.98;;;17.40;99.90;;;;;;5055057;28;20129;-77
2022/05/22 07:38:38;;;;;;;26.05;9.90;;;17.70;99.90;;;;;;5055084;28;20037;-76
2022/05/22 07:41:04;;;;;;;32.88;8.93;;;17.80;99.90;;;;;;5037120;28;20106;-79
2022/05/22 07:43:30;;;;;;;26.40;10.15;;;18.10;99.90;;;;;;5037153;28;20056;-77
2022/05/22 07:45:55;;;;;;;34.65;8.68;;;18.10;99.90;;;;;;5037338;28;20495;-77
2022/05/22 07:48:21;;;;;;;23.88;7.85;;;18.10;99.90;;;;;;5054943;28;20029;-77
2022/05/22 07:50:54;;;;;;;24.65;6.18;;;18.20;99.90;;;;;;5036901;28;20041;-77
2022/05/22 07:53:20;;;;;;;20.92;6.40;;;18.30;99.90;;;;;;5037237;28;20052;-77
2022/05/22 07:55:46;;;;;;;27.55;7.85;;;18.30;99.90;;;;;;5054572;28;20486;-78
2022/05/22 07:58:11;;;;;;;17.80;7.13;;;18.50;99.90;;;;;;5054788;28;20554;-77
2022/05/22 08:00:37;;;;;;;24.80;7.22;;;18.50;99.90;;;;;;5036762;28;20040;-77
2022/05/22 08:03:10;;;;;;;21.00;7.18;;;18.70;99.90;;;;;;5053858;28;20044;-77
2022/05/22 08:05:36;;;;;;;19.95;6.32;;;18.80;99.90;;;;;;5050967;28;20512;-77
2022/05/22 08:08:01;;;;;;;22.25;6.68;;;19.00;99.90;;;;;;5036781;28;20503;-77
2022/05/22 08:10:28;;;;;;;18.75;5.63;;;19.00;99.90;;;;;;5036569;28;20423;-77
2022/05/22 08:12:54;;;;;;;20.13;5.57;;;19.00;99.90;;;;;;5054195;28;20041;-77
2022/05/22 08:15:22;;;;;;;22.40;6.00;;;19.00;99.90;;;;;;5054126;28;20041;-77
2022/05/22 08:17:49;;;;;;;15.48;4.93;;;19.10;99.90;;;;;;5050947;28;20065;-77
2022/05/22 08:20:17;;;;;;;17.20;4.70;;;19.30;99.90;;;;;;5019781;28;20096;-77
2022/05/22 08:22:46;;;;;;;17.00;4.30;;;19.50;99.90;;;;;;5034075;28;20076;-77
2022/05/22 08:25:18;;;;;;;12.80;4.68;;;19.50;99.90;;;;;;5034208;28;20050;-78
2022/05/22 08:27:44;;;;;;;16.88;4.03;;;19.40;99.90;;;;;;5016779;28;20103;-79
2022/05/22 08:30:12;;;;;;;14.80;4.25;;;19.50;99.90;;;;;;5034015;28;20049;-79
2022/05/22 08:32:39;;;;;;;14.85;3.75;;;19.40;99.90;;;;;;5016549;28;20053;-79
2022/05/22 08:35:07;;;;;;;22.13;4.28;;;19.10;99.90;;;;;;5032905;28;20040;-78
2022/05/22 08:37:33;;;;;;;16.90;4.93;;;19.30;99.90;;;;;;5016383;28;20128;-78
2022/05/22 08:40:00;;;;;;;14.80;4.25;;;19.40;99.90;;;;;;5033956;28;20561;-78
2022/05/22 08:42:39;;;;;;;17.95;4.25;;;19.50;99.90;;;;;;5033908;28;20493;-78
2022/05/22 08:45:11;;;;;;;20.05;5.68;;;19.80;99.90;;;;;;5032848;28;20049;-78
2022/05/22 08:47:38;;;;;;;;;;;19.70;99.90;;;;;;5034195;28;20044;-78
2022/05/22 08:50:08;;;;;;;16.73;5.03;;;19.70;99.90;;;;;;5033902;28;19971;-79
2022/05/22 08:52:42;;;;;;;16.45;4.32;;;19.90;99.90;;;;;;5016234;28;20116;-78
2022/05/22 08:55:21;;;;;;;17.30;4.20;;;20.00;99.90;;;;;;5016159;28;20485;-78
2022/05/22 09:00:47;;;;;;;14.93;3.42;;;20.50;99.90;;;;;;5052789;28;20095;-78
2022/05/22 09:03:18;;;;;;;20.05;4.05;;;20.40;99.90;;;;;;5052870;28;20095;-78
2022/05/22 09:05:47;;;;;;;18.17;3.73;;;20.50;99.90;;;;;;5035228;28;20060;-78
2022/05/22 09:08:23;;;;;;;14.63;4.60;;;20.50;99.90;;;;;;5053686;28;20037;-78
2022/05/22 09:11:08;;;;;;;12.43;4.88;;;20.60;99.90;;;;;;5053533;28;20037;-78
2022/05/22 09:13:50;;;;;;;16.67;5.20;;;20.70;99.90;;;;;;5034913;28;20044;-79
2022/05/22 09:16:49;;;;;;;13.70;4.25;;;20.60;99.90;;;;;;5032862;28;20049;-78
2022/05/22 09:19:23;;;;;;;11.85;4.55;;;20.90;99.90;;;;;;5032448;28;20888;-78
2022/05/22 09:22:21;;;;;;;16.38;4.78;;;21.00;99.90;;;;;;5053179;28;20053;-78
2022/05/22 09:25:24;;;;;;;22.05;5.97;;;21.10;99.90;;;;;;5035070;28;20049;-78
2022/05/22 09:28:20;;;;;;;17.40;6.00;;;21.20;99.90;;;;;;5035512;28;20041;-78
2022/05/22 09:31:08;;;;;;;15.75;5.63;;;21.00;99.90;;;;;;5035286;28;20140;-79
2022/05/22 09:34:01;;;;;;;24.73;7.00;;;21.30;99.90;;;;;;5034931;28;20381;-78
2022/05/22 09:36:48;;;;;;;24.48;6.88;;;21.70;99.90;;;;;;5051396;28;20049;-78
2022/05/22 09:39:35;;;;;;;19.02;5.68;;;21.80;99.90;;;;;;5052974;28;20147;-79
2022/05/22 09:42:20;;;;;;;15.05;5.85;;;21.80;99.90;;;;;;5035009;28;20045;-78
2022/05/22 09:44:52;;;;;;;19.05;5.65;;;21.90;99.90;;;;;;5034582;28;20528;-78
2022/05/22 09:47:45;;;;;;;19.20;6.00;;;22.00;99.90;;;;;;5035029;28;20045;-78
2022/05/22 09:50:28;;;;;;;15.82;6.55;;;21.40;99.90;;;;;;5053070;28;20040;-78
2022/05/22 09:53:04;;;;;;;19.65;6.85;;;21.00;99.90;;;;;;5035344;28;20047;-79
2022/05/22 09:55:52;;;;;;;17.38;6.53;;;20.80;99.90;;;;;;5035219;28;20102;-79
2022/05/22 09:58:48;;;;;;;21.27;6.90;;;20.70;99.90;;;;;;5034954;28;20045;-79
2022/05/22 10:01:28;;;;;;;14.85;6.78;;;20.80;99.90;;;;;;5053088;28;20052;-79
2022/05/22 10:04:29;;;;;;;21.25;6.97;;;20.80;99.90;;;;;;5034448;28;20103;-79
2022/05/22 10:07:14;;;;;;;18.15;6.80;;;20.80;99.90;;;;;;5034929;28;20045;-79
2022/05/22 10:09:52;;;;;;;23.17;7.40;;;20.70;99.90;;;;;;5034912;28;20048;-79
2022/05/22 10:12:27;;;;;;;27.67;10.88;;;20.90;99.90;;;;;;5052719;28;20068;-79
2022/05/22 10:15:11;;;;;;;20.60;7.50;;;20.70;99.90;;;;;;5034545;28;20100;-79
2022/05/22 10:17:52;;;;;;;22.85;7.00;;;20.80;99.90;;;;;;5034679;28;20519;-79
2022/05/22 10:20:40;;;;;;;15.95;7.18;;;20.60;99.90;;;;;;5052714;28;20095;-79
2022/05/22 10:23:33;;;;;;;18.77;7.45;;;20.70;99.90;;;;;;5052876;28;20049;-79
2022/05/22 10:26:23;;;;;;;16.65;7.03;;;20.70;99.90;;;;;;5035006;28;20124;-79
2022/05/22 10:29:12;;;;;;;15.10;6.40;;;20.90;99.90;;;;;;5035120;28;20057;-78
2022/05/22 10:31:44;;;;;;;13.57;6.05;;;20.80;99.90;;;;;;5034711;28;20045;-80
2022/05/22 10:34:20;;;;;;;21.25;6.68;;;20.90;99.90;;;;;;5052343;28;20441;-80
2022/05/22 10:36:51;;;;;;;18.48;6.75;;;20.80;99.90;;;;;;5035579;28;20045;-80
2022/05/22 10:39:17;;;;;;;20.90;7.10;;;20.70;99.90;;;;;;5056134;28;20045;-80
2022/05/22 10:44:43;;;;;;;18.23;6.20;;;21.00;99.90;;;;;;5054738;28;20385;-80
2022/05/22 10:47:09;;;;;;;19.13;5.82;;;21.40;99.90;;;;;;5038127;28;20075;-81
2022/05/22 10:49:43;;;;;;;21.27;5.97;;;21.80;99.90;;;;;;5037285;28;20132;-81
2022/05/22 10:52:21;;;;;;;17.77;5.93;;;21.90;99.90;;;;;;5055971;28;20041;-81
2022/05/22 10:54:50;;;;;;;18.77;6.38;;;22.20;99.90;;;;;;5055754;28;20413;-81
2022/05/22 10:57:28;;;;;;;18.35;6.57;;;22.10;99.90;;;;;;5038124;28;20120;-81
2022/05/22 10:59:54;;;;;;;19.70;7.65;;;22.10;99.90;;;;;;5056144;28;20037;-81
2022/05/22 11:02:27;;;;;;;20.58;7.35;;;21.80;99.90;;;;;;5055547;28;20403;-82
2022/05/22 11:04:54;;;;;;;15.43;6.43;;;21.90;99.90;;;;;;5038051;28;20053;-81
2022/05/22 11:07:46;;;;;;;19.55;7.07;;;21.80;99.90;;;;;;5055553;28;20051;-81
2022/05/22 11:10:28;;;;;;;34.13;7.88;;;21.50;99.90;;;;;;5055563;28;20045;-81
2022/05/22 11:13:04;;;;;;;19.08;5.97;;;21.50;99.90;;;;;;5055604;28;20036;-81
2022/05/22 11:15:37;;;;;;;20.20;6.68;;;21.70;99.90;;;;;;5037412;28;20069;-81
2022/05/22 11:18:32;;;;;;;21.58;7.93;;;22.20;99.90;;;;;;5037552;28;20484;-81
2022/05/22 11:21:17;;;;;;;17.13;6.93;;;22.50;99.90;;;;;;5038581;28;20455;-83
2022/05/22 11:24:01;;;;;;;17.25;6.75;;;22.20;99.90;;;;;;5055285;28;20124;-81
2022/05/22 11:26:54;;;;;;;25.75;10.18;;;22.10;99.90;;;;;;5055259;28;20049;-80
2022/05/22 11:29:48;;;;;;;33.20;16.17;;;22.00;99.90;;;;;;5037525;28;20558;-81
2022/05/22 11:32:39;;;;;;;16.83;7.20;;;21.80;99.90;;;;;;5055505;28;20052;-83
2022/05/22 11:35:31;;;;;;;20.35;6.57;;;21.70;99.90;;;;;;5055378;28;20044;-81
2022/05/22 11:38:21;;;;;;;22.07;6.57;;;21.60;99.90;;;;;;5055323;28;20056;-81
2022/05/22 11:41:01;;;;;;;17.70;6.63;;;21.40;99.90;;;;;;5037329;28;20052;-82
2022/05/22 11:43:31;;;;;;;17.13;6.00;;;21.50;99.90;;;;;;5036992;28;20053;-81
2022/05/22 11:46:12;;;;;;;14.45;6.50;;;21.50;99.90;;;;;;5036990;28;20052;-81
2022/05/22 11:48:41;;;;;;;23.00;7.47;;;21.50;99.90;;;;;;5036364;28;20055;-81
2022/05/22 11:51:49;;;;;;;14.02;6.38;;;21.10;99.90;;;;;;5036832;28;20448;-81
2022/05/22 11:54:24;;;;;;;15.30;6.07;;;20.90;99.90;;;;;;5026243;28;20069;-81
2022/05/22 11:57:14;;;;;;;15.60;7.00;;;20.50;99.90;;;;;;5054862;28;20127;-80
2022/05/22 11:59:58;;;;;;;16.60;5.82;;;19.90;99.90;;;;;;5054780;28;20141;-80
2022/05/22 12:02:32;;;;;;;20.70;6.60;;;20.00;99.90;;;;;;5036643;28;20056;-80
2022/05/22 12:05:23;;;;;;;19.65;7.03;;;19.90;99.90;;;;;;5054605;28;20045;-81
2022/05/22 12:07:59;;;;;;;14.85;6.25;;;20.50;99.90;;;;;;5036756;28;20123;-81
2022/05/22 12:10:35;;;;;;;16.85;6.28;;;20.70;99.90;;;;;;5036455;28;20459;-81
2022/05/22 12:13:10;;;;;;;17.98;6.70;;;21.10;99.90;;;;;;5054405;28;20041;-81
2022/05/22 12:15:50;;;;;;;20.52;5.68;;;21.00;99.90;;;;;;5054188;28;20048;-81
2022/05/22 12:18:45;;;;;;;12.32;5.15;;;21.10;99.90;;;;;;5054666;28;20045;-81
2022/05/22 12:21:21;;;;;;;15.18;4.97;;;21.10;99.90;;;;;;5036388;28;20447;-81
2022/05/22 12:24:13;;;;;;;14.20;4.63;;;20.90;99.90;;;;;;5036228;28;20049;-80
2022/05/22 12:26:41;;;;;;;14.13;4.63;;;21.00;99.90;;;;;;5054025;28;20083;-81
2022/05/22 12:29:14;;;;;;;20.80;5.10;;;21.10;99.90;;;;;;5036445;28;20396;-81
2022/05/22 12:31:44;;;;;;;18.70;5.88;;;20.70;99.90;;;;;;5054352;28;20033;-81
2022/05/22 12:34:13;;;;;;;17.58;4.82;;;20.40;99.90;;;;;;5054004;28;20036;-81
2022/05/22 12:36:44;;;;;;;11.65;4.85;;;20.70;99.90;;;;;;5053957;28;20492;-81
2022/05/22 12:39:12;;;;;;;14.50;3.97;;;20.80;99.90;;;;;;5036251;28;20045;-81
2022/05/22 12:41:43;;;;;;;12.45;3.60;;;21.00;99.90;;;;;;5054036;28;20059;-81
2022/05/22 12:44:09;;;;;;;11.60;3.90;;;21.10;99.90;;;;;;5053714;28;20075;-80
2022/05/22 12:46:37;;;;;;;17.90;7.05;;;21.30;99.90;;;;;;5053681;28;20061;-80
2022/05/22 12:49:17;;;;;;;18.58;6.10;;;21.50;99.90;;;;;;5035801;28;20052;-80
2022/05/22 12:51:45;;;;;;;15.43;4.65;;;21.60;99.90;;;;;;5053768;28;20102;-80
2022/05/22 12:54:24;;;;;;;14.05;3.67;;;21.50;99.90;;;;;;5053825;28;20129;-80
2022/05/22 12:56:51;;;;;;;18.05;5.03;;;21.20;99.90;;;;;;5053845;28;20055;-80
2022/05/22 12:59:19;;;;;;;20.92;4.43;;;21.10;99.90;;;;;;5035672;28;20049;-80
2022/05/22 13:01:46;;;;;;;12.32;4.28;;;21.40;99.90;;;;;;5053497;28;20048;-80
2022/05/22 13:04:30;;;;;;;12.90;4.97;;;21.40;99.90;;;;;;5053598;28;20045;-80
2022/05/22 13:07:11;;;;;;;19.45;4.57;;;21.10;99.90;;;;;;5053328;28;20500;-80
2022/05/22 13:09:41;;;;;;;16.42;5.43;;;21.50;99.90;;;;;;5035532;28;20056;-80
2022/05/22 13:12:10;;;;;;;15.55;5.43;;;21.50;99.90;;;;;;5053587;28;20053;-80
2022/05/22 13:14:40;;;;;;;16.35;4.70;;;21.30;99.90;;;;;;5053395;28;20056;-81